sensor_id;sensor_type;location;lat;lon;timestamp;pressure;altitude;pressure_sealevel;temperature;humidity
26937;BME280;14495;48.116;11.676;2023-08-06T00:01:48;94920.13;;;14.38;100.00
26937;BME280;14495;48.116;11.676;2023-08-06T00:04:13;94921.38;;;14.44;100.00
26937;BME280;14495;48.116;11.676;2023-08-06T00:06:38;94926.75;;;14.52;100.00
26937;BME280;14495;48.116;11.676;2023-08-06T00:09:03;94925.38;;;14.48;100.00
26937;BME280;14495;48.116;11.676;2023-08-06T00:11:29;94920.38;;;14.45;100.00
26937;BME280;14495;48.116;11.676;2023-08-06T00:13:54;94923.97;;;14.34;100.00
26937;BME280;14495;48.116;11.676;2023-08-06T00:16:19;94922.19;;;14.35;100.00
26937;BME280;14495;48.116;11.676;2023-08-06T00:18:45;94924.53;;;14.38;100.00
26937;BME280;14495;48.116;11.676;2023-08-06T00:21:10;94926.19;;;14.39;100.00
26937;BME280;14495;48.116;11.676;2023-08-06T00:23:37;94934.75;;;14.31;100.00
26937;BME280;14495;48.116;11.676;2023-08-06T00:26:03;94933.78;;;14.32;100.00
26937;BME280;14495;48.116;11.676;2023-08-06T00:28:28;94940.84;;;14.31;100.00
26937;BME280;14495;48.116;11.676;2023-08-06T00:30:54;94923.94;;;14.24;100.00
26937;BME280;14495;48.116;11.676;2023-08-06T00:33:20;94926.44;;;14.26;100.00
26937;BME280;14495;48.116;11.676;2023-08-06T00:35:45;94929.91;;;14.26;100.00
26937;BME280;14495;48.116;11.676;2023-08-06T00:38:11;94930.31;;;14.22;100.00
26937;BME280;14495;48.116;11.676;2023-08-06T00:40:37;94934.72;;;14.21;100.00
26937;BME280;14495;48.116;11.676;2023-08-06T00:43:02;94931.13;;;14.13;100.00
26937;BME280;14495;48.116;11.676;2023-08-06T00:45:33;94929.75;;;14.18;100.00
26937;BME280;14495;48.116;11.676;2023-08-06T00:48:02;94921.00;;;14.08;100.00
26937;BME280;14495;48.116;11.676;2023-08-06T00:50:29;94910.88;;;13.93;100.00
26937;BME280;14495;48.116;11.676;2023-08-06T00:52:54;94898.13;;;13.79;100.00
26937;BME280;14495;48.116;11.676;2023-08-06T00:55:20;94905.59;;;13.84;100.00
26937;BME280;14495;48.116;11.676;2023-08-06T00:57:46;94903.09;;;13.82;100.00
26937;BME280;14495;48.116;11.676;2023-08-06T01:00:11;94895.06;;;13.74;100.00
26937;BME280;14495;48.116;11.676;2023-08-06T01:02:37;94905.13;;;13.69;100.00
26937;BME280;14495;48.116;11.676;2023-08-06T01:05:03;94909.13;;;13.73;100.00
26937;BME280;14495;48.116;11.676;2023-08-06T01:12:47;94908.28;;;13.63;100.00
26937;BME280;14495;48.116;11.676;2023-08-06T01:15:17;94910.47;;;13.58;100.00
26937;BME280;14495;48.116;11.676;2023-08-06T01:17:44;94907.94;;;13.46;100.00
26937;BME280;14495;48.116;11.676;2023-08-06T01:20:10;94906.00;;;13.48;100.00
26937;BME280;14495;48.116;11.676;2023-08-06T01:22:35;94902.44;;;13.49;100.00
26937;BME280;14495;48.116;11.676;2023-08-06T01:25:01;94898.91;;;13.39;100.00
26937;BME280;14495;48.116;11.676;2023-08-06T01:27:44;94900.75;;;13.48;100.00
26937;BME280;14495;48.116;11.676;2023-08-06T01:32:50;94896.41;;;13.59;100.00
26937;BME280;14495;48.116;11.676;2023-08-06T01:35:17;94897.88;;;13.51;100.00
26937;BME280;14495;48.116;11.676;2023-08-06T01:37:44;94891.41;;;13.56;100.00
26937;BME280;14495;48.116;11.676;2023-08-06T01:40:11;94890.88;;;13.62;100.00
26937;BME280;14495;48.116;11.676;2023-08-06T01:42:37;94892.78;;;13.60;100.00
26937;BME280;14495;48.116;11.676;2023-08-06T01:45:03;94901.66;;;13.59;100.00
26937;BME280;14495;48.116;11.676;2023-08-06T01:47:28;94901.66;;;13.59;100.00
26937;BME280;14495;48.116;11.676;2023-08-06T01:49:54;94890.56;;;13.55;100.00
26937;BME280;14495;48.116;11.676;2023-08-06T01:52:19;94890.44;;;13.57;100.00
26937;BME280;14495;48.116;11.676;2023-08-06T01:54:44;94894.72;;;13.58;100.00
26937;BME280;14495;48.116;11.676;2023-08-06T01:57:10;94888.75;;;13.46;100.00
26937;BME280;14495;48.116;11.676;2023-08-06T01:59:35;94896.88;;;13.43;100.00
26937;BME280;14495;48.116;11.676;2023-08-06T02:02:00;94883.75;;;13.43;100.00
26937;BME280;14495;48.116;11.676;2023-08-06T02:04:26;94889.53;;;13.37;100.00
26937;BME280;14495;48.116;11.676;2023-08-06T02:06:51;94879.41;;;13.32;100.00
26937;BME280;14495;48.116;11.676;2023-08-06T02:09:16;94883.47;;;13.25;100.00
26937;BME280;14495;48.116;11.676;2023-08-06T02:11:42;94877.97;;;13.28;100.00
26937;BME280;14495;48.116;11.676;2023-08-06T02:14:10;94871.78;;;13.29;100.00
26937;BME280;14495;48.116;11.676;2023-08-06T02:16:35;94868.44;;;13.27;100.00
26937;BME280;14495;48.116;11.676;2023-08-06T02:19:00;94868.44;;;13.27;100.00
26937;BME280;14495;48.116;11.676;2023-08-06T02:21:26;94871.34;;;13.24;100.00
26937;BME280;14495;48.116;11.676;2023-08-06T02:23:51;94869.66;;;13.23;100.00
26937;BME280;14495;48.116;11.676;2023-08-06T02:26:16;94865.00;;;13.26;100.00
26937;BME280;14495;48.116;11.676;2023-08-06T02:28:42;94857.25;;;13.25;100.00
26937;BME280;14495;48.116;11.676;2023-08-06T02:31:07;94850.34;;;13.24;100.00
26937;BME280;14495;48.116;11.676;2023-08-06T02:33:32;94849.22;;;13.17;100.00
26937;BME280;14495;48.116;11.676;2023-08-06T02:36:04;94838.41;;;13.10;100.00
26937;BME280;14495;48.116;11.676;2023-08-06T02:38:30;94836.34;;;13.13;100.00
26937;BME280;14495;48.116;11.676;2023-08-06T02:40:55;94833.56;;;13.05;100.00
26937;BME280;14495;48.116;11.676;2023-08-06T02:43:21;94837.81;;;13.06;100.00
26937;BME280;14495;48.116;11.676;2023-08-06T02:45:46;94845.88;;;13.14;100.00
26937;BME280;14495;48.116;11.676;2023-08-06T02:48:11;94829.25;;;13.04;100.00
26937;BME280;14495;48.116;11.676;2023-08-06T02:50:40;94828.00;;;12.99;100.00
26937;BME280;14495;48.116;11.676;2023-08-06T02:53:06;94819.31;;;12.98;100.00
26937;BME280;14495;48.116;11.676;2023-08-06T02:55:32;94806.63;;;13.03;100.00
26937;BME280;14495;48.116;11.676;2023-08-06T02:57:59;94795.81;;;12.96;100.00
26937;BME280;14495;48.116;11.676;2023-08-06T03:00:25;94796.41;;;13.00;100.00
26937;BME280;14495;48.116;11.676;2023-08-06T03:02:53;94788.66;;;12.99;100.00
26937;BME280;14495;48.116;11.676;2023-08-06T03:05:18;94805.22;;;12.99;100.00
26937;BME280;14495;48.116;11.676;2023-08-06T03:07:43;94803.56;;;12.98;100.00
26937;BME280;14495;48.116;11.676;2023-08-06T03:10:09;94804.09;;;12.92;100.00
26937;BME280;14495;48.116;11.676;2023-08-06T03:12:34;94798.28;;;12.88;100.00
26937;BME280;14495;48.116;11.676;2023-08-06T03:15:00;94797.38;;;12.78;100.00
26937;BME280;14495;48.116;11.676;2023-08-06T03:17:25;94796.34;;;12.69;100.00
26937;BME280;14495;48.116;11.676;2023-08-06T03:19:50;94797.34;;;12.68;100.00
26937;BME280;14495;48.116;11.676;2023-08-06T03:22:16;94808.47;;;12.61;100.00
26937;BME280;14495;48.116;11.676;2023-08-06T03:24:41;94818.09;;;12.60;100.00
26937;BME280;14495;48.116;11.676;2023-08-06T03:27:06;94821.56;;;12.61;100.00
26937;BME280;14495;48.116;11.676;2023-08-06T03:29:32;94815.16;;;12.53;100.00
26937;BME280;14495;48.116;11.676;2023-08-06T03:31:57;94820.97;;;12.57;100.00
26937;BME280;14495;48.116;11.676;2023-08-06T03:34:22;94812.91;;;12.49;100.00
26937;BME280;14495;48.116;11.676;2023-08-06T03:36:48;94813.50;;;12.52;100.00
26937;BME280;14495;48.116;11.676;2023-08-06T03:39:13;94812.72;;;12.41;100.00
26937;BME280;14495;48.116;11.676;2023-08-06T03:41:39;94816.63;;;12.46;100.00
26937;BME280;14495;48.116;11.676;2023-08-06T03:44:04;94806.41;;;12.43;100.00
26937;BME280;14495;48.116;11.676;2023-08-06T03:46:30;94807.09;;;12.45;100.00
26937;BME280;14495;48.116;11.676;2023-08-06T03:48:59;94804.47;;;12.45;100.00
26937;BME280;14495;48.116;11.676;2023-08-06T03:51:24;94806.28;;;12.45;100.00
26937;BME280;14495;48.116;11.676;2023-08-06T03:53:49;94807.50;;;12.41;100.00
26937;BME280;14495;48.116;11.676;2023-08-06T03:56:15;94811.50;;;12.45;100.00
26937;BME280;14495;48.116;11.676;2023-08-06T03:58:40;94806.50;;;12.42;100.00
26937;BME280;14495;48.116;11.676;2023-08-06T04:01:05;94806.50;;;12.42;100.00
26937;BME280;14495;48.116;11.676;2023-08-06T04:03:30;94799.16;;;12.35;100.00
26937;BME280;14495;48.116;11.676;2023-08-06T04:05:56;94803.72;;;12.33;100.00
26937;BME280;14495;48.116;11.676;2023-08-06T04:08:21;94801.09;;;12.33;100.00
26937;BME280;14495;48.116;11.676;2023-08-06T04:10:53;94804.06;;;12.29;100.00
26937;BME280;14495;48.116;11.676;2023-08-06T04:13:18;94800.63;;;12.28;100.00
26937;BME280;14495;48.116;11.676;2023-08-06T04:15:44;94803.25;;;12.28;100.00
26937;BME280;14495;48.116;11.676;2023-08-06T04:18:10;94803.72;;;12.33;100.00
26937;BME280;14495;48.116;11.676;2023-08-06T04:20:43;94806.09;;;12.36;100.00
26937;BME280;14495;48.116;11.676;2023-08-06T04:23:09;94799.88;;;12.37;100.00
26937;BME280;14495;48.116;11.676;2023-08-06T04:25:34;94800.31;;;12.43;100.00
26937;BME280;14495;48.116;11.676;2023-08-06T04:27:59;94792.34;;;12.44;100.00
26937;BME280;14495;48.116;11.676;2023-08-06T04:30:25;94798.03;;;12.49;100.00
26937;BME280;14495;48.116;11.676;2023-08-06T04:32:50;94787.63;;;12.59;100.00
26937;BME280;14495;48.116;11.676;2023-08-06T04:35:16;94791.38;;;12.66;100.00
26937;BME280;14495;48.116;11.676;2023-08-06T04:37:41;94781.06;;;12.74;100.00
26937;BME280;14495;48.116;11.676;2023-08-06T04:40:09;94801.28;;;12.84;100.00
26937;BME280;14495;48.116;11.676;2023-08-06T04:42:35;94807.66;;;12.91;100.00
26937;BME280;14495;48.116;11.676;2023-08-06T04:45:04;94798.31;;;12.98;100.00
26937;BME280;14495;48.116;11.676;2023-08-06T04:47:29;94794.03;;;12.97;100.00
26937;BME280;14495;48.116;11.676;2023-08-06T04:49:54;94787.31;;;13.04;100.00
26937;BME280;14495;48.116;11.676;2023-08-06T04:52:20;94795.34;;;13.12;100.00
26937;BME280;14495;48.116;11.676;2023-08-06T04:54:45;94792.59;;;13.14;100.00
26937;BME280;14495;48.116;11.676;2023-08-06T04:57:10;94789.59;;;13.28;100.00
26937;BME280;14495;48.116;11.676;2023-08-06T04:59:36;94789.84;;;13.46;100.00
26937;BME280;14495;48.116;11.676;2023-08-06T05:02:01;94787.81;;;13.60;100.00
26937;BME280;14495;48.116;11.676;2023-08-06T05:04:27;94784.22;;;13.61;100.00
26937;BME280;14495;48.116;11.676;2023-08-06T05:06:52;94788.78;;;13.59;100.00
26937;BME280;14495;48.116;11.676;2023-08-06T05:09:18;94796.38;;;13.62;100.00
26937;BME280;14495;48.116;11.676;2023-08-06T05:11:48;94785.03;;;13.61;100.00
26937;BME280;14495;48.116;11.676;2023-08-06T05:14:16;94794.94;;;13.38;100.00
26937;BME280;14495;48.116;11.676;2023-08-06T05:16:41;94797.41;;;13.40;100.00
26937;BME280;14495;48.116;11.676;2023-08-06T05:19:07;94792.16;;;13.40;100.00
26937;BME280;14495;48.116;11.676;2023-08-06T05:21:32;94790.78;;;13.36;100.00
26937;BME280;14495;48.116;11.676;2023-08-06T05:24:00;94790.06;;;13.33;100.00
26937;BME280;14495;48.116;11.676;2023-08-06T05:26:25;94802.09;;;13.36;100.00
26937;BME280;14495;48.116;11.676;2023-08-06T05:28:50;94801.69;;;13.31;100.00
26937;BME280;14495;48.116;11.676;2023-08-06T05:31:16;94793.53;;;13.34;100.00
26937;BME280;14495;48.116;11.676;2023-08-06T05:33:41;94789.69;;;13.38;100.00
26937;BME280;14495;48.116;11.676;2023-08-06T05:36:09;94790.66;;;13.47;100.00
26937;BME280;14495;48.116;11.676;2023-08-06T05:38:34;94799.06;;;13.31;100.00
26937;BME280;14495;48.116;11.676;2023-08-06T05:40:59;94797.25;;;13.31;100.00
26937;BME280;14495;48.116;11.676;2023-08-06T05:43:25;94805.63;;;13.25;100.00
26937;BME280;14495;48.116;11.676;2023-08-06T05:45:50;94800.81;;;13.30;100.00
26937;BME280;14495;48.116;11.676;2023-08-06T05:48:16;94802.38;;;13.33;100.00
26937;BME280;14495;48.116;11.676;2023-08-06T05:50:41;94803.19;;;13.33;100.00
26937;BME280;14495;48.116;11.676;2023-08-06T05:53:07;94800.94;;;13.29;100.00
26937;BME280;14495;48.116;11.676;2023-08-06T05:55:32;94798.25;;;13.40;100.00
26937;BME280;14495;48.116;11.676;2023-08-06T05:57:58;94794.66;;;13.41;100.00
26937;BME280;14495;48.116;11.676;2023-08-06T06:00:23;94785.41;;;13.47;100.00
26937;BME280;14495;48.116;11.676;2023-08-06T06:02:49;94790.44;;;13.60;100.00
26937;BME280;14495;48.116;11.676;2023-08-06T06:05:14;94795.28;;;13.74;100.00
26937;BME280;14495;48.116;11.676;2023-08-06T06:07:39;94800.97;;;13.79;100.00
26937;BME280;14495;48.116;11.676;2023-08-06T06:10:05;94795.72;;;13.79;100.00
26937;BME280;14495;48.116;11.676;2023-08-06T06:12:33;94796.28;;;13.92;100.00
26937;BME280;14495;48.116;11.676;2023-08-06T06:14:58;94793.41;;;14.05;100.00
26937;BME280;14495;48.116;11.676;2023-08-06T06:17:26;94793.66;;;14.12;100.00
26937;BME280;14495;48.116;11.676;2023-08-06T06:19:51;94794.81;;;14.29;100.00
26937;BME280;14495;48.116;11.676;2023-08-06T06:22:17;94798.94;;;14.41;100.00
26937;BME280;14495;48.116;11.676;2023-08-06T06:24:42;94796.84;;;14.45;100.00
26937;BME280;14495;48.116;11.676;2023-08-06T06:27:07;94800.06;;;14.58;100.00
26937;BME280;14495;48.116;11.676;2023-08-06T06:29:33;94795.91;;;14.65;100.00
26937;BME280;14495;48.116;11.676;2023-08-06T06:31:58;94797.81;;;14.73;100.00
26937;BME280;14495;48.116;11.676;2023-08-06T06:34:23;94798.06;;;14.89;100.00
26937;BME280;14495;48.116;11.676;2023-08-06T06:36:49;94802.81;;;15.23;100.00
26937;BME280;14495;48.116;11.676;2023-08-06T06:39:15;94797.06;;;15.38;100.00
26937;BME280;14495;48.116;11.676;2023-08-06T06:41:41;94793.03;;;15.71;100.00
26937;BME280;14495;48.116;11.676;2023-08-06T06:44:09;94798.28;;;15.99;100.00
26937;BME280;14495;48.116;11.676;2023-08-06T06:46:34;94789.13;;;16.21;100.00
26937;BME280;14495;48.116;11.676;2023-08-06T06:49:00;94789.84;;;16.85;100.00
26937;BME280;14495;48.116;11.676;2023-08-06T06:51:25;94780.16;;;17.20;100.00
26937;BME280;14495;48.116;11.676;2023-08-06T06:53:50;94792.00;;;17.50;100.00
26937;BME280;14495;48.116;11.676;2023-08-06T06:56:16;94789.19;;;17.44;100.00
26937;BME280;14495;48.116;11.676;2023-08-06T06:58:41;94782.97;;;17.27;100.00
26937;BME280;14495;48.116;11.676;2023-08-06T07:01:08;94794.47;;;17.44;100.00
26937;BME280;14495;48.116;11.676;2023-08-06T07:03:35;94788.97;;;17.71;100.00
26937;BME280;14495;48.116;11.676;2023-08-06T07:06:00;94789.09;;;18.04;100.00
26937;BME280;14495;48.116;11.676;2023-08-06T07:08:26;94790.97;;;17.77;100.00
26937;BME280;14495;48.116;11.676;2023-08-06T07:11:02;94783.78;;;18.04;100.00
26937;BME280;14495;48.116;11.676;2023-08-06T07:13:28;94793.09;;;17.74;100.00
26937;BME280;14495;48.116;11.676;2023-08-06T07:15:54;94790.31;;;19.00;100.00
26937;BME280;14495;48.116;11.676;2023-08-06T07:18:20;94774.72;;;19.69;100.00
26937;BME280;14495;48.116;11.676;2023-08-06T07:20:50;94796.22;;;19.27;100.00
26937;BME280;14495;48.116;11.676;2023-08-06T07:23:16;94790.16;;;18.77;100.00
26937;BME280;14495;48.116;11.676;2023-08-06T07:25:41;94793.69;;;17.94;100.00
26937;BME280;14495;48.116;11.676;2023-08-06T07:28:06;94811.28;;;17.43;100.00
26937;BME280;14495;48.116;11.676;2023-08-06T07:30:32;94802.19;;;17.71;100.00
26937;BME280;14495;48.116;11.676;2023-08-06T07:32:57;94806.50;;;17.38;100.00
26937;BME280;14495;48.116;11.676;2023-08-06T07:35:28;94806.59;;;17.02;100.00
26937;BME280;14495;48.116;11.676;2023-08-06T07:37:53;94810.28;;;16.47;100.00
26937;BME280;14495;48.116;11.676;2023-08-06T07:40:19;94807.03;;;16.17;100.00
26937;BME280;14495;48.116;11.676;2023-08-06T07:42:44;94800.94;;;16.17;100.00
26937;BME280;14495;48.116;11.676;2023-08-06T07:45:09;94796.19;;;15.84;100.00
26937;BME280;14495;48.116;11.676;2023-08-06T07:47:35;94800.84;;;15.91;100.00
26937;BME280;14495;48.116;11.676;2023-08-06T07:50:02;94798.22;;;15.91;100.00
26937;BME280;14495;48.116;11.676;2023-08-06T07:52:28;94799.50;;;16.04;100.00
26937;BME280;14495;48.116;11.676;2023-08-06T07:54:53;94799.19;;;15.90;100.00
26937;BME280;14495;48.116;11.676;2023-08-06T07:57:18;94795.19;;;15.85;100.00
26937;BME280;14495;48.116;11.676;2023-08-06T07:59:44;94783.28;;;15.54;100.00
26937;BME280;14495;48.116;11.676;2023-08-06T08:02:09;94779.59;;;15.74;100.00
26937;BME280;14495;48.116;11.676;2023-08-06T08:04:35;94782.69;;;15.88;100.00
26937;BME280;14495;48.116;11.676;2023-08-06T08:07:00;94773.25;;;16.31;100.00
26937;BME280;14495;48.116;11.676;2023-08-06T08:09:25;94766.50;;;16.98;100.00
26937;BME280;14495;48.116;11.676;2023-08-06T08:11:50;94758.00;;;17.90;100.00
26937;BME280;14495;48.116;11.676;2023-08-06T08:14:17;94751.44;;;18.19;100.00
26937;BME280;14495;48.116;11.676;2023-08-06T08:16:42;94755.75;;;18.69;100.00
26937;BME280;14495;48.116;11.676;2023-08-06T08:19:08;94749.41;;;19.11;100.00
26937;BME280;14495;48.116;11.676;2023-08-06T08:21:33;94749.31;;;18.71;100.00
26937;BME280;14495;48.116;11.676;2023-08-06T08:24:00;94745.50;;;18.49;100.00
26937;BME280;14495;48.116;11.676;2023-08-06T08:26:25;94736.56;;;18.50;100.00
26937;BME280;14495;48.116;11.676;2023-08-06T08:28:53;94733.25;;;18.73;100.00
26937;BME280;14495;48.116;11.676;2023-08-06T08:31:18;94728.63;;;18.91;100.00
26937;BME280;14495;48.116;11.676;2023-08-06T08:33:43;94722.19;;;19.34;100.00
26937;BME280;14495;48.116;11.676;2023-08-06T08:36:09;94732.41;;;19.05;100.00
26937;BME280;14495;48.116;11.676;2023-08-06T08:38:35;94736.88;;;18.80;100.00
26937;BME280;14495;48.116;11.676;2023-08-06T08:41:00;94731.78;;;18.21;100.00
26937;BME280;14495;48.116;11.676;2023-08-06T08:43:26;94739.00;;;19.18;100.00
26937;BME280;14495;48.116;11.676;2023-08-06T08:45:53;94738.13;;;19.73;100.00
26937;BME280;14495;48.116;11.676;2023-08-06T08:48:24;94738.44;;;19.30;100.00
26937;BME280;14495;48.116;11.676;2023-08-06T08:50:50;94750.41;;;19.18;100.00
26937;BME280;14495;48.116;11.676;2023-08-06T08:53:16;94741.38;;;18.47;100.00
26937;BME280;14495;48.116;11.676;2023-08-06T08:55:43;94755.69;;;17.87;100.00
26937;BME280;14495;48.116;11.676;2023-08-06T08:58:09;94754.47;;;17.30;100.00
26937;BME280;14495;48.116;11.676;2023-08-06T09:00:35;94768.28;;;16.72;100.00
26937;BME280;14495;48.116;11.676;2023-08-06T09:03:01;94769.38;;;16.61;100.00
26937;BME280;14495;48.116;11.676;2023-08-06T09:05:28;94759.38;;;16.73;100.00
26937;BME280;14495;48.116;11.676;2023-08-06T09:08:01;94756.03;;;17.15;100.00
26937;BME280;14495;48.116;11.676;2023-08-06T09:10:27;94765.50;;;17.60;100.00
26937;BME280;14495;48.116;11.676;2023-08-06T09:12:52;94767.94;;;17.62;100.00
26937;BME280;14495;48.116;11.676;2023-08-06T09:15:20;94767.66;;;17.65;100.00
26937;BME280;14495;48.116;11.676;2023-08-06T09:17:45;94772.78;;;17.32;100.00
26937;BME280;14495;48.116;11.676;2023-08-06T09:20:14;94772.25;;;17.20;100.00
26937;BME280;14495;48.116;11.676;2023-08-06T09:22:40;94793.66;;;16.29;100.00
26937;BME280;14495;48.116;11.676;2023-08-06T09:25:07;94802.31;;;16.03;100.00
26937;BME280;14495;48.116;11.676;2023-08-06T09:27:36;94796.88;;;16.58;100.00
26937;BME280;14495;48.116;11.676;2023-08-06T09:30:02;94794.94;;;17.05;100.00
26937;BME280;14495;48.116;11.676;2023-08-06T09:32:44;94780.25;;;17.36;100.00
26937;BME280;14495;48.116;11.676;2023-08-06T09:35:14;94777.47;;;17.12;100.00
26937;BME280;14495;48.116;11.676;2023-08-06T09:37:40;94786.13;;;16.78;100.00
26937;BME280;14495;48.116;11.676;2023-08-06T09:42:48;94786.25;;;17.20;100.00
26937;BME280;14495;48.116;11.676;2023-08-06T09:45:13;94777.22;;;16.97;100.00
26937;BME280;14495;48.116;11.676;2023-08-06T09:47:40;94779.16;;;17.21;100.00
26937;BME280;14495;48.116;11.676;2023-08-06T09:50:18;94790.16;;;17.08;100.00
26937;BME280;14495;48.116;11.676;2023-08-06T09:52:44;94773.06;;;17.55;100.00
26937;BME280;14495;48.116;11.676;2023-08-06T09:55:12;94783.03;;;17.77;100.00
26937;BME280;14495;48.116;11.676;2023-08-06T09:57:40;94789.28;;;17.60;100.00
26937;BME280;14495;48.116;11.676;2023-08-06T10:00:06;94779.63;;;17.85;100.00
26937;BME280;14495;48.116;11.676;2023-08-06T10:02:34;94781.28;;;17.52;100.00
26937;BME280;14495;48.116;11.676;2023-08-06T10:05:01;94788.97;;;17.71;100.00
26937;BME280;14495;48.116;11.676;2023-08-06T10:07:27;94776.22;;;17.24;100.00
26937;BME280;14495;48.116;11.676;2023-08-06T10:09:54;94795.44;;;17.08;100.00
26937;BME280;14495;48.116;11.676;2023-08-06T10:12:21;94788.94;;;17.03;100.00
26937;BME280;14495;48.116;11.676;2023-08-06T10:14:48;94799.50;;;16.22;100.00
26937;BME280;14495;48.116;11.676;2023-08-06T10:17:15;94788.22;;;15.94;100.00
26937;BME280;14495;48.116;11.676;2023-08-06T10:19:41;94803.72;;;16.15;100.00
26937;BME280;14495;48.116;11.676;2023-08-06T10:22:14;94804.25;;;16.01;100.00
26937;BME280;14495;48.116;11.676;2023-08-06T10:24:57;94800.19;;;15.89;100.00
26937;BME280;14495;48.116;11.676;2023-08-06T10:28:01;94797.03;;;16.03;100.00
26937;BME280;14495;48.116;11.676;2023-08-06T10:30:30;94783.00;;;16.56;100.00
26937;BME280;14495;48.116;11.676;2023-08-06T10:33:01;94789.78;;;17.29;100.00
26937;BME280;14495;48.116;11.676;2023-08-06T10:37:59;94770.09;;;17.58;100.00
26937;BME280;14495;48.116;11.676;2023-08-06T10:40:28;94786.84;;;17.83;100.00
26937;BME280;14495;48.116;11.676;2023-08-06T10:42:56;94778.63;;;17.44;100.00
26937;BME280;14495;48.116;11.676;2023-08-06T10:45:23;94788.09;;;17.28;100.00
26937;BME280;14495;48.116;11.676;2023-08-06T10:47:53;94789.41;;;17.24;100.00
26937;BME280;14495;48.116;11.676;2023-08-06T10:50:19;94794.22;;;17.63;100.00
26937;BME280;14495;48.116;11.676;2023-08-06T10:52:45;94803.00;;;17.37;100.00
26937;BME280;14495;48.116;11.676;2023-08-06T10:55:16;94801.97;;;17.56;100.00
26937;BME280;14495;48.116;11.676;2023-08-06T10:57:47;94802.72;;;17.49;100.00
26937;BME280;14495;48.116;11.676;2023-08-06T11:00:12;94803.38;;;17.77;100.00
26937;BME280;14495;48.116;11.676;2023-08-06T11:02:39;94798.31;;;18.00;100.00
26937;BME280;14495;48.116;11.676;2023-08-06T11:05:05;94781.34;;;18.03;100.00
26937;BME280;14495;48.116;11.676;2023-08-06T11:07:31;94803.97;;;18.13;100.00
26937;BME280;14495;48.116;11.676;2023-08-06T11:10:08;94787.97;;;18.23;100.00
26937;BME280;14495;48.116;11.676;2023-08-06T11:12:34;94795.88;;;18.15;100.00
26937;BME280;14495;48.116;11.676;2023-08-06T11:15:00;94789.94;;;18.05;100.00
26937;BME280;14495;48.116;11.676;2023-08-06T11:17:30;94807.25;;;17.99;100.00
26937;BME280;14495;48.116;11.676;2023-08-06T11:19:59;94801.56;;;18.78;100.00
26937;BME280;14495;48.116;11.676;2023-08-06T11:22:25;94801.06;;;18.74;100.00
26937;BME280;14495;48.116;11.676;2023-08-06T11:24:50;94797.75;;;18.31;100.00
26937;BME280;14495;48.116;11.676;2023-08-06T11:27:16;94810.91;;;17.29;100.00
26937;BME280;14495;48.116;11.676;2023-08-06T11:29:43;94823.00;;;16.88;100.00
26937;BME280;14495;48.116;11.676;2023-08-06T11:32:10;94825.09;;;16.84;100.00
26937;BME280;14495;48.116;11.676;2023-08-06T11:34:36;94827.81;;;16.56;100.00
26937;BME280;14495;48.116;11.676;2023-08-06T11:37:05;94831.44;;;16.73;100.00
26937;BME280;14495;48.116;11.676;2023-08-06T11:39:35;94828.19;;;16.97;100.00
26937;BME280;14495;48.116;11.676;2023-08-06T11:42:03;94820.69;;;17.45;100.00
26937;BME280;14495;48.116;11.676;2023-08-06T11:44:36;94845.88;;;17.31;100.00
26937;BME280;14495;48.116;11.676;2023-08-06T11:47:03;94841.91;;;17.27;100.00
26937;BME280;14495;48.116;11.676;2023-08-06T11:52:21;94838.16;;;17.72;100.00
26937;BME280;14495;48.116;11.676;2023-08-06T11:55:02;94845.22;;;17.90;100.00
26937;BME280;14495;48.116;11.676;2023-08-06T11:57:32;94857.94;;;17.60;100.00
26937;BME280;14495;48.116;11.676;2023-08-06T12:00:04;94856.75;;;17.02;100.00
26937;BME280;14495;48.116;11.676;2023-08-06T12:02:33;94843.44;;;16.68;100.00
26937;BME280;14495;48.116;11.676;2023-08-06T12:07:37;94852.63;;;16.99;100.00
26937;BME280;14495;48.116;11.676;2023-08-06T12:10:03;94854.13;;;17.28;100.00
26937;BME280;14495;48.116;11.676;2023-08-06T12:12:29;94846.66;;;16.79;100.00
26937;BME280;14495;48.116;11.676;2023-08-06T12:14:55;94863.16;;;16.81;100.00
26937;BME280;14495;48.116;11.676;2023-08-06T12:17:21;94865.44;;;16.94;100.00
26937;BME280;14495;48.116;11.676;2023-08-06T12:19:46;94854.00;;;17.12;100.00
26937;BME280;14495;48.116;11.676;2023-08-06T12:22:13;94856.59;;;17.04;100.00
26937;BME280;14495;48.116;11.676;2023-08-06T12:24:40;94854.38;;;17.17;100.00
26937;BME280;14495;48.116;11.676;2023-08-06T12:27:05;94858.72;;;17.52;100.00
26937;BME280;14495;48.116;11.676;2023-08-06T12:29:31;94851.47;;;17.02;100.00
26937;BME280;14495;48.116;11.676;2023-08-06T12:31:56;94854.41;;;16.81;100.00
26937;BME280;14495;48.116;11.676;2023-08-06T12:34:22;94857.00;;;16.37;100.00
26937;BME280;14495;48.116;11.676;2023-08-06T12:36:48;94856.09;;;16.46;100.00
26937;BME280;14495;48.116;11.676;2023-08-06T12:39:13;94853.47;;;16.46;100.00
26937;BME280;14495;48.116;11.676;2023-08-06T12:41:38;94847.38;;;16.46;100.00
26937;BME280;14495;48.116;11.676;2023-08-06T12:44:04;94842.19;;;16.08;100.00
26937;BME280;14495;48.116;11.676;2023-08-06T12:46:30;94851.44;;;15.94;100.00
26937;BME280;14495;48.116;11.676;2023-08-06T12:48:56;94846.59;;;15.90;100.00
26937;BME280;14495;48.116;11.676;2023-08-06T12:51:25;94847.00;;;15.95;100.00
26937;BME280;14495;48.116;11.676;2023-08-06T12:53:50;94854.19;;;15.65;100.00
26937;BME280;14495;48.116;11.676;2023-08-06T12:56:17;94879.22;;;15.41;100.00